createdAt,value
2023-12-11T00:00:15.926Z,100176.97
2023-12-11T00:05:18.751Z,100177.06
2023-12-11T00:10:21.248Z,100187.94
2023-12-11T00:15:23.817Z,100184.78
2023-12-11T00:20:26.354Z,100193.19
2023-12-11T00:25:29.263Z,100145.78
2023-12-11T00:30:31.924Z,100108.31
2023-12-11T00:35:34.427Z,99978.94
2023-12-11T00:40:36.930Z,100165.59
2023-12-11T00:45:39.457Z,100193.81
2023-12-11T00:50:42.066Z,100163.88
2023-12-11T00:55:44.540Z,100202.53
2023-12-11T01:00:47.205Z,100144.81
2023-12-11T01:05:49.621Z,100180.06
2023-12-11T01:10:52.059Z,100136.50
2023-12-11T01:15:54.541Z,100136.22
2023-12-11T01:20:57.139Z,100163.75
2023-12-11T01:25:59.673Z,100130.94
2023-12-11T01:31:02.529Z,100156.78
2023-12-11T01:36:05.518Z,100159.44
2023-12-11T01:41:08.184Z,100133.13
2023-12-11T01:46:13.634Z,100039.59
2023-12-11T01:51:18.060Z,100123.34
2023-12-11T01:56:22.913Z,100153.09
2023-12-11T02:01:27.189Z,100122.38
2023-12-11T02:06:29.835Z,100131.91
2023-12-11T02:11:32.889Z,100034.00
2023-12-11T02:16:35.455Z,100145.72
2023-12-11T02:21:38.238Z,100130.00
2023-12-11T02:26:40.947Z,100130.94
2023-12-11T02:31:43.431Z,100117.56
2023-12-11T02:36:45.917Z,100130.63
2023-12-11T02:41:48.391Z,100113.25
2023-12-11T02:46:50.884Z,100111.06
2023-12-11T02:51:53.484Z,100159.91
2023-12-11T02:56:56.011Z,100095.75
2023-12-11T03:01:58.881Z,100068.41
2023-12-11T03:07:01.525Z,100157.50
2023-12-11T03:12:04.237Z,100176.16
2023-12-11T03:17:06.973Z,100173.50
2023-12-11T03:22:09.746Z,100101.28
2023-12-11T03:27:12.354Z,100141.47
2023-12-11T03:32:15.704Z,100104.28
2023-12-11T03:37:20.720Z,100120.03
2023-12-11T03:42:23.251Z,100166.41
2023-12-11T03:47:25.803Z,100119.00
2023-12-11T03:52:28.943Z,100023.34
2023-12-11T03:57:32.826Z,100130.63
2023-12-11T04:02:36.035Z,100074.59
2023-12-11T04:07:38.842Z,99860.31
2023-12-11T04:12:44.104Z,100096.69
2023-12-11T04:17:46.835Z,100156.16
2023-12-11T04:22:49.511Z,100097.09
2023-12-11T04:27:52.374Z,100033.69
2023-12-11T04:32:55.043Z,100124.66
2023-12-11T04:37:57.610Z,100070.88
2023-12-11T04:43:00.278Z,100152.34
2023-12-11T04:48:03.996Z,100067.75
2023-12-11T04:53:09.538Z,100068.78
2023-12-11T04:58:12.253Z,100028.13
2023-12-11T05:03:15.274Z,100106.16
2023-12-11T05:08:20.554Z,100136.63
2023-12-11T05:13:23.015Z,100085.69
2023-12-11T05:18:25.574Z,100098.19
2023-12-11T05:23:28.152Z,100128.41
2023-12-11T05:28:30.715Z,100143.19
2023-12-11T05:33:33.457Z,100063.25
2023-12-11T05:38:36.147Z,100109.41
2023-12-11T05:43:38.861Z,100127.41
2023-12-11T05:48:41.641Z,100134.53
2023-12-11T05:53:44.466Z,100101.38
2023-12-11T05:58:47.186Z,100028.88
2023-12-11T06:03:50.546Z,100093.94
2023-12-11T06:08:56.059Z,100076.44
2023-12-11T06:13:58.858Z,100125.84
2023-12-11T06:19:01.508Z,100031.09
2023-12-11T06:24:04.370Z,100084.19
2023-12-11T06:29:09.189Z,100105.78
2023-12-11T06:34:11.926Z,99908.16
2023-12-11T06:39:14.546Z,100053.47
2023-12-11T06:44:17.231Z,100086.00
2023-12-11T06:49:20.807Z,99981.66
2023-12-11T06:54:23.406Z,100054.78
2023-12-11T06:59:25.842Z,100071.13
2023-12-11T07:04:28.753Z,100101.19
2023-12-11T07:09:32.672Z,99994.63
2023-12-11T07:14:35.309Z,100095.38
2023-12-11T07:19:37.881Z,100098.16
2023-12-11T07:24:40.435Z,100081.41
2023-12-11T07:29:42.883Z,100087.75
2023-12-11T07:34:45.691Z,100052.22
2023-12-11T07:39:49.353Z,100068.56
2023-12-11T07:44:51.839Z,100042.44
2023-12-11T07:49:54.521Z,100071.75
2023-12-11T07:54:58.480Z,99990.00
2023-12-11T08:00:01.574Z,100015.25
2023-12-11T08:05:07.381Z,100014.00
2023-12-11T08:10:10.311Z,100033.00
2023-12-11T08:15:12.866Z,99991.66
2023-12-11T08:20:19.096Z,99968.78
2023-12-11T08:25:23.288Z,99992.00
2023-12-11T08:30:25.785Z,99992.13
2023-12-11T08:35:28.487Z,100025.19
2023-12-11T08:40:31.053Z,99986.22
2023-12-11T08:45:37.035Z,99911.03
2023-12-11T08:50:39.617Z,100005.88
2023-12-11T08:55:43.222Z,99893.38
2023-12-11T09:00:46.332Z,99928.22
2023-12-11T09:05:49.002Z,99933.00
2023-12-11T09:10:51.654Z,99858.97
2023-12-11T09:15:56.525Z,99926.63
2023-12-11T09:20:59.106Z,99928.13
2023-12-11T09:26:01.927Z,99948.09
2023-12-11T09:31:04.766Z,99869.72
2023-12-11T09:36:08.275Z,99883.84
2023-12-11T09:41:10.773Z,99864.44
2023-12-11T09:46:14.416Z,99942.25
2023-12-11T09:51:18.301Z,99922.88
2023-12-11T09:56:20.861Z,99917.69
2023-12-11T10:01:23.692Z,99761.56
2023-12-11T10:06:26.355Z,99938.94
2023-12-11T10:11:29.862Z,99807.72
2023-12-11T10:16:33.913Z,99882.88
2023-12-11T10:21:43.081Z,99830.66
2023-12-11T10:26:47.637Z,99640.59
2023-12-11T10:31:50.845Z,99625.50
2023-12-11T10:36:54.284Z,99844.31
2023-12-11T10:41:56.968Z,99715.94
2023-12-11T10:46:59.722Z,99691.38
2023-12-11T10:52:04.461Z,99676.00
2023-12-11T10:57:10.821Z,99602.16
2023-12-11T11:02:19.173Z,99885.66
2023-12-11T11:07:36.615Z,99821.56
2023-12-11T11:12:58.966Z,99878.97
2023-12-11T11:18:05.509Z,99887.72
2023-12-11T11:23:22.095Z,99888.72
2023-12-11T11:28:44.780Z,99877.13
2023-12-11T11:33:53.672Z,99877.91
2023-12-11T11:39:02.454Z,99833.03
2023-12-11T11:44:09.753Z,99828.09
2023-12-11T11:49:25.375Z,99763.00
2023-12-11T11:54:30.937Z,99476.69
2023-12-11T11:59:43.237Z,99774.28
2023-12-11T12:04:45.811Z,99890.75
2023-12-11T12:09:54.060Z,99687.75
2023-12-11T12:15:05.568Z,99762.72
2023-12-11T12:20:14.333Z,99783.63
2023-12-11T12:25:17.922Z,99866.41
2023-12-11T12:30:20.968Z,99667.25
2023-12-11T12:35:23.614Z,99723.50
2023-12-11T12:40:26.237Z,99741.41
2023-12-11T12:45:37.132Z,99875.72
2023-12-11T12:50:40.285Z,99811.41
2023-12-11T12:55:42.885Z,99719.31
2023-12-11T13:00:46.190Z,99848.63
2023-12-11T13:05:50.300Z,99821.59
2023-12-11T13:10:57.544Z,99766.16
2023-12-11T13:16:00.213Z,99817.06
2023-12-11T13:21:02.948Z,99758.13
2023-12-11T13:26:05.786Z,99662.66
2023-12-11T13:31:08.399Z,99751.00
2023-12-11T13:36:12.155Z,99793.28
2023-12-11T13:41:15.133Z,99827.06
2023-12-11T13:46:17.775Z,99843.00
2023-12-11T13:51:20.513Z,99779.88
2023-12-11T13:56:23.320Z,99822.03
2023-12-11T14:01:26.228Z,99821.84
2023-12-11T14:06:28.874Z,99848.19
2023-12-11T14:11:31.415Z,99853.28
2023-12-11T14:16:34.414Z,99824.53
2023-12-11T14:21:37.118Z,99835.59
2023-12-11T14:26:47.224Z,99802.59
2023-12-11T14:31:51.061Z,99817.22
2023-12-11T14:36:53.777Z,99768.44
2023-12-11T14:41:56.629Z,99774.53
2023-12-11T14:47:01.782Z,99716.97
2023-12-11T14:52:04.594Z,99732.88
2023-12-11T14:57:07.571Z,99763.34
2023-12-11T15:02:11.750Z,99768.63
2023-12-11T15:07:14.412Z,99754.47
2023-12-11T15:12:17.040Z,99786.81
2023-12-11T15:17:23.022Z,99721.56
2023-12-11T15:22:25.835Z,99682.72
2023-12-11T15:27:28.791Z,99697.09
2023-12-11T15:32:31.977Z,99741.69
2023-12-11T15:37:37.228Z,99759.28
2023-12-11T15:42:39.876Z,99800.44
2023-12-11T15:48:00.680Z,99750.69
2023-12-11T15:53:05.933Z,99701.97
2023-12-11T15:58:11.093Z,99624.00
2023-12-11T16:03:15.123Z,99699.66
2023-12-11T16:08:17.816Z,99746.66
2023-12-11T16:13:21.219Z,99638.63
2023-12-11T16:18:26.047Z,99466.63
2023-12-11T16:23:30.116Z,99593.63
2023-12-11T16:28:40.917Z,99511.78
2023-12-11T16:33:45.983Z,99667.91
2023-12-11T16:38:49.697Z,99666.38
2023-12-11T16:43:53.887Z,99449.22
2023-12-11T16:48:57.208Z,99707.66
2023-12-11T16:54:07.101Z,99660.09
2023-12-11T16:59:13.003Z,99670.28
2023-12-11T17:04:15.757Z,99681.44
2023-12-11T17:09:18.402Z,99626.72
2023-12-11T17:14:22.974Z,99622.31
2023-12-11T17:19:25.552Z,99672.16
2023-12-11T17:24:31.202Z,99663.44
2023-12-11T17:29:34.752Z,99644.97
2023-12-11T17:34:37.516Z,99689.41
2023-12-11T17:39:40.060Z,99620.84
2023-12-11T17:44:42.743Z,99642.53
2023-12-11T17:49:46.167Z,99625.94
2023-12-11T17:54:50.555Z,99607.72
2023-12-11T17:59:54.373Z,99543.63
2023-12-11T18:04:58.214Z,99612.34
2023-12-11T18:10:05.109Z,99660.19
2023-12-11T18:15:07.997Z,99591.78
2023-12-11T18:20:13.497Z,99631.69
2023-12-11T18:25:18.351Z,99596.09
2023-12-11T18:30:22.821Z,99634.34
2023-12-11T18:35:25.593Z,99599.31
2023-12-11T18:40:29.775Z,99601.53
2023-12-11T18:45:32.853Z,99532.38
2023-12-11T18:50:36.583Z,99550.38
2023-12-11T18:55:39.156Z,99637.97
2023-12-11T19:01:04.241Z,99591.69
2023-12-11T19:06:07.353Z,99655.13
2023-12-11T19:11:21.153Z,99652.47
2023-12-11T19:16:24.393Z,99591.78
2023-12-11T19:21:27.024Z,99543.19
2023-12-11T19:26:29.996Z,99639.88
2023-12-11T19:31:32.928Z,99616.22
2023-12-11T19:36:36.734Z,99535.03
2023-12-11T19:41:43.098Z,99568.38
2023-12-11T19:46:53.062Z,99346.94
2023-12-11T19:51:55.932Z,99637.09
2023-12-11T19:56:59.088Z,99636.34
2023-12-11T20:02:03.273Z,99608.69
2023-12-11T20:07:08.667Z,99640.53
2023-12-11T20:12:15.011Z,99532.25
2023-12-11T20:17:23.083Z,99572.88
2023-12-11T20:22:25.747Z,99571.16
2023-12-11T20:27:28.929Z,99571.25
2023-12-11T20:32:33.813Z,99619.31
2023-12-11T20:37:39.268Z,99589.47
2023-12-11T20:42:42.114Z,99596.63
2023-12-11T20:47:44.714Z,99611.91
2023-12-11T20:52:47.318Z,99638.31
2023-12-11T20:57:49.802Z,99601.72
2023-12-11T21:02:52.979Z,99591.00
2023-12-11T21:07:58.804Z,99588.38
2023-12-11T21:13:01.375Z,99586.69
2023-12-11T21:18:04.039Z,99561.31
2023-12-11T21:23:06.564Z,99588.03
2023-12-11T21:28:09.062Z,99549.13
2023-12-11T21:33:11.665Z,99609.78
2023-12-11T21:38:15.654Z,99626.69
2023-12-11T21:43:18.300Z,99546.59
2023-12-11T21:48:25.323Z,99557.75
2023-12-11T21:53:28.061Z,99578.75
2023-12-11T21:58:32.300Z,99462.13
2023-12-11T22:03:35.882Z,99545.50
2023-12-11T22:08:38.592Z,99607.59
2023-12-11T22:13:42.206Z,99598.84
2023-12-11T22:18:47.199Z,99595.41
2023-12-11T22:23:49.757Z,99602.38
2023-12-11T22:28:52.266Z,99610.88
2023-12-11T22:33:54.809Z,99549.03
2023-12-11T22:38:57.729Z,99587.03
2023-12-11T22:44:00.576Z,99493.69
2023-12-11T22:49:03.173Z,99554.53
2023-12-11T22:54:05.766Z,99612.00
2023-12-11T22:59:08.422Z,99512.56
2023-12-11T23:04:11.274Z,99550.22
2023-12-11T23:09:13.808Z,99552.97
2023-12-11T23:14:16.476Z,99571.75
2023-12-11T23:19:19.026Z,99523.63
2023-12-11T23:24:22.271Z,99556.28
2023-12-11T23:29:24.751Z,99554.41
2023-12-11T23:34:27.239Z,99553.28
2023-12-11T23:39:29.805Z,99572.63
2023-12-11T23:44:32.369Z,99568.09
2023-12-11T23:49:38.934Z,99516.00
2023-12-11T23:54:41.510Z,99550.22
2023-12-11T23:59:43.949Z,99572.84
